sensor_id;sensor_type;location;lat;lon;timestamp;temperature;humidity
52513;DHT22;38422;53.172;6.974;2023-07-29T00:01:47;20.60;99.90
52513;DHT22;38422;53.172;6.974;2023-07-29T00:04:14;20.60;99.90
52513;DHT22;38422;53.172;6.974;2023-07-29T00:06:40;20.60;99.90
52513;DHT22;38422;53.172;6.974;2023-07-29T00:09:06;20.60;99.90
52513;DHT22;38422;53.172;6.974;2023-07-29T00:11:31;20.60;99.90
52513;DHT22;38422;53.172;6.974;2023-07-29T00:14:00;20.60;99.90
52513;DHT22;38422;53.172;6.974;2023-07-29T00:16:26;20.60;99.90
52513;DHT22;38422;53.172;6.974;2023-07-29T00:18:52;20.60;99.90
52513;DHT22;38422;53.172;6.974;2023-07-29T00:21:17;20.60;99.90
52513;DHT22;38422;53.172;6.974;2023-07-29T00:23:43;20.50;99.90
52513;DHT22;38422;53.172;6.974;2023-07-29T00:26:08;20.50;99.90
52513;DHT22;38422;53.172;6.974;2023-07-29T00:28:34;20.50;99.90
52513;DHT22;38422;53.172;6.974;2023-07-29T00:31:00;20.40;99.90
52513;DHT22;38422;53.172;6.974;2023-07-29T00:33:25;20.40;99.90
52513;DHT22;38422;53.172;6.974;2023-07-29T00:35:51;20.50;99.90
52513;DHT22;38422;53.172;6.974;2023-07-29T00:38:17;20.40;99.90
52513;DHT22;38422;53.172;6.974;2023-07-29T00:40:43;20.40;99.90
52513;DHT22;38422;53.172;6.974;2023-07-29T00:43:09;20.40;99.90
52513;DHT22;38422;53.172;6.974;2023-07-29T00:45:34;20.40;99.90
52513;DHT22;38422;53.172;6.974;2023-07-29T00:48:01;20.40;99.90
52513;DHT22;38422;53.172;6.974;2023-07-29T00:50:27;20.40;99.90
52513;DHT22;38422;53.172;6.974;2023-07-29T00:52:54;20.40;99.90
52513;DHT22;38422;53.172;6.974;2023-07-29T00:55:20;20.40;99.90
52513;DHT22;38422;53.172;6.974;2023-07-29T00:57:46;20.40;99.90
52513;DHT22;38422;53.172;6.974;2023-07-29T01:00:15;20.40;99.90
52513;DHT22;38422;53.172;6.974;2023-07-29T01:02:43;20.40;99.90
52513;DHT22;38422;53.172;6.974;2023-07-29T01:05:11;20.40;99.90
52513;DHT22;38422;53.172;6.974;2023-07-29T01:07:59;20.30;99.90
52513;DHT22;38422;53.172;6.974;2023-07-29T01:13:06;20.30;99.90
52513;DHT22;38422;53.172;6.974;2023-07-29T01:15:56;20.20;99.90
52513;DHT22;38422;53.172;6.974;2023-07-29T01:18:24;20.20;99.90
52513;DHT22;38422;53.172;6.974;2023-07-29T01:20:53;20.10;99.90
52513;DHT22;38422;53.172;6.974;2023-07-29T01:23:24;20.10;99.90
52513;DHT22;38422;53.172;6.974;2023-07-29T01:25:50;20.10;99.90
52513;DHT22;38422;53.172;6.974;2023-07-29T01:28:16;20.10;99.90
52513;DHT22;38422;53.172;6.974;2023-07-29T01:30:43;20.00;99.90
52513;DHT22;38422;53.172;6.974;2023-07-29T01:33:30;20.00;99.90
52513;DHT22;38422;53.172;6.974;2023-07-29T01:36:02;20.00;99.90
52513;DHT22;38422;53.172;6.974;2023-07-29T01:38:30;19.90;99.90
52513;DHT22;38422;53.172;6.974;2023-07-29T01:41:00;19.90;99.90
52513;DHT22;38422;53.172;6.974;2023-07-29T01:43:30;19.90;99.90
52513;DHT22;38422;53.172;6.974;2023-07-29T01:45:56;19.80;99.90
52513;DHT22;38422;53.172;6.974;2023-07-29T01:48:22;19.80;99.90
52513;DHT22;38422;53.172;6.974;2023-07-29T01:50:48;19.80;99.90
52513;DHT22;38422;53.172;6.974;2023-07-29T01:53:14;19.70;99.90
52513;DHT22;38422;53.172;6.974;2023-07-29T01:55:41;19.60;99.90
52513;DHT22;38422;53.172;6.974;2023-07-29T01:58:06;19.60;99.90
52513;DHT22;38422;53.172;6.974;2023-07-29T02:00:32;19.60;99.90
52513;DHT22;38422;53.172;6.974;2023-07-29T02:02:58;19.50;99.90
52513;DHT22;38422;53.172;6.974;2023-07-29T02:05:24;19.50;99.90
52513;DHT22;38422;53.172;6.974;2023-07-29T02:07:49;19.50;99.90
52513;DHT22;38422;53.172;6.974;2023-07-29T02:10:15;19.40;99.90
52513;DHT22;38422;53.172;6.974;2023-07-29T02:12:41;19.40;99.90
52513;DHT22;38422;53.172;6.974;2023-07-29T02:15:07;19.30;99.90
52513;DHT22;38422;53.172;6.974;2023-07-29T02:17:33;19.30;99.90
52513;DHT22;38422;53.172;6.974;2023-07-29T02:19:59;19.30;99.90
52513;DHT22;38422;53.172;6.974;2023-07-29T02:22:24;19.30;99.90
52513;DHT22;38422;53.172;6.974;2023-07-29T02:24:50;19.30;99.90
52513;DHT22;38422;53.172;6.974;2023-07-29T02:27:16;19.30;99.90
52513;DHT22;38422;53.172;6.974;2023-07-29T02:29:41;19.30;99.90
52513;DHT22;38422;53.172;6.974;2023-07-29T02:32:07;19.30;99.90
52513;DHT22;38422;53.172;6.974;2023-07-29T02:34:33;19.30;99.90
52513;DHT22;38422;53.172;6.974;2023-07-29T02:37:00;19.20;99.90
52513;DHT22;38422;53.172;6.974;2023-07-29T02:39:25;19.20;99.90
52513;DHT22;38422;53.172;6.974;2023-07-29T02:41:51;19.20;99.90
52513;DHT22;38422;53.172;6.974;2023-07-29T02:44:17;19.10;99.90
52513;DHT22;38422;53.172;6.974;2023-07-29T02:46:43;19.10;99.90
52513;DHT22;38422;53.172;6.974;2023-07-29T02:49:09;19.10;99.90
52513;DHT22;38422;53.172;6.974;2023-07-29T02:51:34;19.10;99.90
52513;DHT22;38422;53.172;6.974;2023-07-29T02:54:00;19.10;99.90
52513;DHT22;38422;53.172;6.974;2023-07-29T02:56:26;19.00;99.90
52513;DHT22;38422;53.172;6.974;2023-07-29T02:58:51;19.00;99.90
52513;DHT22;38422;53.172;6.974;2023-07-29T03:01:17;19.00;99.90
52513;DHT22;38422;53.172;6.974;2023-07-29T03:03:43;19.00;99.90
52513;DHT22;38422;53.172;6.974;2023-07-29T03:06:11;19.00;99.90
52513;DHT22;38422;53.172;6.974;2023-07-29T03:08:37;19.00;99.90
52513;DHT22;38422;53.172;6.974;2023-07-29T03:11:07;18.90;99.90
52513;DHT22;38422;53.172;6.974;2023-07-29T03:13:33;18.90;99.90
52513;DHT22;38422;53.172;6.974;2023-07-29T03:16:10;18.90;99.90
52513;DHT22;38422;53.172;6.974;2023-07-29T03:18:37;18.90;99.90
52513;DHT22;38422;53.172;6.974;2023-07-29T03:21:03;18.90;99.90
52513;DHT22;38422;53.172;6.974;2023-07-29T03:23:30;18.90;99.90
52513;DHT22;38422;53.172;6.974;2023-07-29T03:25:57;18.90;99.90
52513;DHT22;38422;53.172;6.974;2023-07-29T03:28:25;18.90;99.90
52513;DHT22;38422;53.172;6.974;2023-07-29T03:30:53;18.90;99.90
52513;DHT22;38422;53.172;6.974;2023-07-29T03:33:19;18.80;99.90
52513;DHT22;38422;53.172;6.974;2023-07-29T03:35:44;18.80;99.90
52513;DHT22;38422;53.172;6.974;2023-07-29T03:38:13;18.80;99.90
52513;DHT22;38422;53.172;6.974;2023-07-29T03:40:40;18.80;99.90
52513;DHT22;38422;53.172;6.974;2023-07-29T03:43:09;18.70;99.90
52513;DHT22;38422;53.172;6.974;2023-07-29T03:45:35;18.70;99.90
52513;DHT22;38422;53.172;6.974;2023-07-29T03:48:04;18.70;99.90
52513;DHT22;38422;53.172;6.974;2023-07-29T03:50:30;18.70;99.90
52513;DHT22;38422;53.172;6.974;2023-07-29T03:52:56;18.70;99.90
52513;DHT22;38422;53.172;6.974;2023-07-29T03:55:22;18.70;99.90
52513;DHT22;38422;53.172;6.974;2023-07-29T03:57:48;18.60;99.90
52513;DHT22;38422;53.172;6.974;2023-07-29T04:00:14;18.60;99.90
52513;DHT22;38422;53.172;6.974;2023-07-29T04:02:41;18.60;99.90
52513;DHT22;38422;53.172;6.974;2023-07-29T04:05:07;18.60;99.90
52513;DHT22;38422;53.172;6.974;2023-07-29T04:07:35;18.60;99.90
52513;DHT22;38422;53.172;6.974;2023-07-29T04:10:02;18.50;99.90
52513;DHT22;38422;53.172;6.974;2023-07-29T04:12:27;18.50;99.90
52513;DHT22;38422;53.172;6.974;2023-07-29T04:14:53;18.50;99.90
52513;DHT22;38422;53.172;6.974;2023-07-29T04:17:19;18.50;99.90
52513;DHT22;38422;53.172;6.974;2023-07-29T04:19:44;18.50;99.90
52513;DHT22;38422;53.172;6.974;2023-07-29T04:22:10;18.50;99.90
52513;DHT22;38422;53.172;6.974;2023-07-29T04:24:36;18.50;99.90
52513;DHT22;38422;53.172;6.974;2023-07-29T04:27:02;18.50;99.90
52513;DHT22;38422;53.172;6.974;2023-07-29T04:29:28;18.40;99.90
52513;DHT22;38422;53.172;6.974;2023-07-29T04:31:54;18.40;99.90
52513;DHT22;38422;53.172;6.974;2023-07-29T04:34:25;18.40;99.90
52513;DHT22;38422;53.172;6.974;2023-07-29T04:36:51;18.40;99.90
52513;DHT22;38422;53.172;6.974;2023-07-29T04:39:16;18.40;99.90
52513;DHT22;38422;53.172;6.974;2023-07-29T04:41:42;18.40;99.90
52513;DHT22;38422;53.172;6.974;2023-07-29T04:44:08;18.40;99.90
52513;DHT22;38422;53.172;6.974;2023-07-29T04:46:35;18.40;99.90
52513;DHT22;38422;53.172;6.974;2023-07-29T04:49:01;18.40;99.90
52513;DHT22;38422;53.172;6.974;2023-07-29T04:51:27;18.40;99.90
52513;DHT22;38422;53.172;6.974;2023-07-29T04:53:53;18.40;99.90
52513;DHT22;38422;53.172;6.974;2023-07-29T04:56:19;18.40;99.90
52513;DHT22;38422;53.172;6.974;2023-07-29T04:58:45;18.40;99.90
52513;DHT22;38422;53.172;6.974;2023-07-29T05:01:10;18.40;99.90
52513;DHT22;38422;53.172;6.974;2023-07-29T05:03:36;18.40;99.90
52513;DHT22;38422;53.172;6.974;2023-07-29T05:06:02;18.50;99.90
52513;DHT22;38422;53.172;6.974;2023-07-29T05:08:28;18.50;99.90
52513;DHT22;38422;53.172;6.974;2023-07-29T05:10:54;18.60;99.90
52513;DHT22;38422;53.172;6.974;2023-07-29T05:13:20;18.60;99.90
52513;DHT22;38422;53.172;6.974;2023-07-29T05:15:48;18.60;99.90
52513;DHT22;38422;53.172;6.974;2023-07-29T05:18:14;18.60;99.90
52513;DHT22;38422;53.172;6.974;2023-07-29T05:20:40;18.60;99.90
52513;DHT22;38422;53.172;6.974;2023-07-29T05:23:06;18.70;99.90
52513;DHT22;38422;53.172;6.974;2023-07-29T05:25:32;18.70;99.90
52513;DHT22;38422;53.172;6.974;2023-07-29T05:28:00;18.80;99.90
52513;DHT22;38422;53.172;6.974;2023-07-29T05:30:26;18.80;99.90
52513;DHT22;38422;53.172;6.974;2023-07-29T05:32:52;18.80;99.90
52513;DHT22;38422;53.172;6.974;2023-07-29T05:35:18;18.80;99.90
52513;DHT22;38422;53.172;6.974;2023-07-29T05:37:44;18.80;99.90
52513;DHT22;38422;53.172;6.974;2023-07-29T05:40:10;18.80;99.90
52513;DHT22;38422;53.172;6.974;2023-07-29T05:42:36;18.80;99.90
52513;DHT22;38422;53.172;6.974;2023-07-29T05:45:02;18.80;99.90
52513;DHT22;38422;53.172;6.974;2023-07-29T05:47:28;18.80;99.90
52513;DHT22;38422;53.172;6.974;2023-07-29T05:49:53;18.80;99.90
52513;DHT22;38422;53.172;6.974;2023-07-29T05:52:23;18.70;99.90
52513;DHT22;38422;53.172;6.974;2023-07-29T05:54:48;18.70;99.90
52513;DHT22;38422;53.172;6.974;2023-07-29T05:57:14;18.70;99.90
52513;DHT22;38422;53.172;6.974;2023-07-29T05:59:40;18.70;99.90
52513;DHT22;38422;53.172;6.974;2023-07-29T06:02:06;18.70;99.90
52513;DHT22;38422;53.172;6.974;2023-07-29T06:04:31;18.70;99.90
52513;DHT22;38422;53.172;6.974;2023-07-29T06:06:57;18.80;99.90
52513;DHT22;38422;53.172;6.974;2023-07-29T06:09:23;18.80;99.90
52513;DHT22;38422;53.172;6.974;2023-07-29T06:11:51;18.80;99.90
52513;DHT22;38422;53.172;6.974;2023-07-29T06:14:16;18.80;99.90
52513;DHT22;38422;53.172;6.974;2023-07-29T06:16:42;18.80;99.90
52513;DHT22;38422;53.172;6.974;2023-07-29T06:19:08;18.90;99.90
52513;DHT22;38422;53.172;6.974;2023-07-29T06:21:35;18.80;99.90
52513;DHT22;38422;53.172;6.974;2023-07-29T06:24:01;18.80;99.90
52513;DHT22;38422;53.172;6.974;2023-07-29T06:26:28;18.80;99.90
52513;DHT22;38422;53.172;6.974;2023-07-29T06:28:53;18.80;99.90
52513;DHT22;38422;53.172;6.974;2023-07-29T06:31:19;18.80;99.90
52513;DHT22;38422;53.172;6.974;2023-07-29T06:33:46;18.90;99.90
52513;DHT22;38422;53.172;6.974;2023-07-29T06:36:12;18.80;99.90
52513;DHT22;38422;53.172;6.974;2023-07-29T06:38:37;18.90;99.90
52513;DHT22;38422;53.172;6.974;2023-07-29T06:41:04;18.90;99.90
52513;DHT22;38422;53.172;6.974;2023-07-29T06:43:30;18.90;99.90
52513;DHT22;38422;53.172;6.974;2023-07-29T06:45:55;19.00;99.90
52513;DHT22;38422;53.172;6.974;2023-07-29T06:48:21;19.00;99.90
52513;DHT22;38422;53.172;6.974;2023-07-29T06:50:47;19.00;99.90
52513;DHT22;38422;53.172;6.974;2023-07-29T06:53:13;19.00;99.90
52513;DHT22;38422;53.172;6.974;2023-07-29T06:55:39;19.00;99.90
52513;DHT22;38422;53.172;6.974;2023-07-29T06:58:05;19.00;99.90
52513;DHT22;38422;53.172;6.974;2023-07-29T07:00:31;19.10;99.90
52513;DHT22;38422;53.172;6.974;2023-07-29T07:02:56;19.20;99.90
52513;DHT22;38422;53.172;6.974;2023-07-29T07:05:22;19.30;99.90
52513;DHT22;38422;53.172;6.974;2023-07-29T07:07:48;19.30;99.90
52513;DHT22;38422;53.172;6.974;2023-07-29T07:10:14;19.30;99.90
52513;DHT22;38422;53.172;6.974;2023-07-29T07:12:40;19.30;99.90
52513;DHT22;38422;53.172;6.974;2023-07-29T07:15:06;19.40;99.90
52513;DHT22;38422;53.172;6.974;2023-07-29T07:17:32;19.40;99.90
52513;DHT22;38422;53.172;6.974;2023-07-29T07:20:00;19.50;99.90
52513;DHT22;38422;53.172;6.974;2023-07-29T07:22:26;19.50;99.90
52513;DHT22;38422;53.172;6.974;2023-07-29T07:24:52;19.60;99.90
52513;DHT22;38422;53.172;6.974;2023-07-29T07:27:17;19.70;99.90
52513;DHT22;38422;53.172;6.974;2023-07-29T07:29:43;19.80;99.90
52513;DHT22;38422;53.172;6.974;2023-07-29T07:32:09;19.90;99.90
52513;DHT22;38422;53.172;6.974;2023-07-29T07:34:34;20.00;99.90
52513;DHT22;38422;53.172;6.974;2023-07-29T07:37:00;20.10;99.90
52513;DHT22;38422;53.172;6.974;2023-07-29T07:39:26;20.10;99.90
52513;DHT22;38422;53.172;6.974;2023-07-29T07:41:52;20.00;99.90
52513;DHT22;38422;53.172;6.974;2023-07-29T07:44:17;20.00;99.90
52513;DHT22;38422;53.172;6.974;2023-07-29T07:46:45;20.00;99.90
52513;DHT22;38422;53.172;6.974;2023-07-29T07:49:11;20.00;99.90
52513;DHT22;38422;53.172;6.974;2023-07-29T07:51:38;20.10;99.90
52513;DHT22;38422;53.172;6.974;2023-07-29T07:54:04;20.10;99.90
52513;DHT22;38422;53.172;6.974;2023-07-29T07:56:29;20.10;99.90
52513;DHT22;38422;53.172;6.974;2023-07-29T07:58:55;20.10;99.90
52513;DHT22;38422;53.172;6.974;2023-07-29T08:01:21;20.20;99.90
52513;DHT22;38422;53.172;6.974;2023-07-29T08:03:47;20.20;99.90
52513;DHT22;38422;53.172;6.974;2023-07-29T08:06:12;20.20;99.90
52513;DHT22;38422;53.172;6.974;2023-07-29T08:08:38;20.10;99.90
52513;DHT22;38422;53.172;6.974;2023-07-29T08:11:04;20.20;99.90
52513;DHT22;38422;53.172;6.974;2023-07-29T08:13:29;20.20;99.90
52513;DHT22;38422;53.172;6.974;2023-07-29T08:15:55;20.30;99.90
52513;DHT22;38422;53.172;6.974;2023-07-29T08:18:21;20.30;99.90
52513;DHT22;38422;53.172;6.974;2023-07-29T08:20:54;20.40;99.90
52513;DHT22;38422;53.172;6.974;2023-07-29T08:23:21;20.50;99.90
52513;DHT22;38422;53.172;6.974;2023-07-29T08:25:54;20.50;99.90
52513;DHT22;38422;53.172;6.974;2023-07-29T08:28:24;20.50;99.90
52513;DHT22;38422;53.172;6.974;2023-07-29T08:30:50;20.60;99.90
52513;DHT22;38422;53.172;6.974;2023-07-29T08:33:16;20.70;99.90
52513;DHT22;38422;53.172;6.974;2023-07-29T08:35:42;20.80;99.90
52513;DHT22;38422;53.172;6.974;2023-07-29T08:38:07;20.90;99.90
52513;DHT22;38422;53.172;6.974;2023-07-29T08:40:35;21.00;99.90
52513;DHT22;38422;53.172;6.974;2023-07-29T08:43:04;21.10;99.90
52513;DHT22;38422;53.172;6.974;2023-07-29T08:45:35;21.10;99.90
52513;DHT22;38422;53.172;6.974;2023-07-29T08:48:03;21.20;99.90
52513;DHT22;38422;53.172;6.974;2023-07-29T08:50:32;21.20;99.90
52513;DHT22;38422;53.172;6.974;2023-07-29T08:52:58;21.30;99.90
52513;DHT22;38422;53.172;6.974;2023-07-29T08:55:24;21.30;99.90
52513;DHT22;38422;53.172;6.974;2023-07-29T08:57:51;21.30;99.90
52513;DHT22;38422;53.172;6.974;2023-07-29T09:00:17;21.50;99.90
52513;DHT22;38422;53.172;6.974;2023-07-29T09:02:43;21.60;99.90
52513;DHT22;38422;53.172;6.974;2023-07-29T09:05:08;21.60;99.90
52513;DHT22;38422;53.172;6.974;2023-07-29T09:07:36;21.60;99.90
52513;DHT22;38422;53.172;6.974;2023-07-29T09:10:02;21.50;99.90
52513;DHT22;38422;53.172;6.974;2023-07-29T09:12:28;21.50;99.90
52513;DHT22;38422;53.172;6.974;2023-07-29T09:14:56;21.40;99.90
52513;DHT22;38422;53.172;6.974;2023-07-29T09:17:22;21.40;99.90
52513;DHT22;38422;53.172;6.974;2023-07-29T09:19:49;21.50;99.90
52513;DHT22;38422;53.172;6.974;2023-07-29T09:22:19;21.60;99.90
52513;DHT22;38422;53.172;6.974;2023-07-29T09:24:48;21.60;99.90
52513;DHT22;38422;53.172;6.974;2023-07-29T09:27:28;21.70;99.90
52513;DHT22;38422;53.172;6.974;2023-07-29T09:29:55;21.70;99.90
52513;DHT22;38422;53.172;6.974;2023-07-29T09:32:23;21.80;99.90
52513;DHT22;38422;53.172;6.974;2023-07-29T09:34:49;21.80;99.90
52513;DHT22;38422;53.172;6.974;2023-07-29T09:37:20;21.90;99.90
52513;DHT22;38422;53.172;6.974;2023-07-29T09:39:47;22.00;99.90
52513;DHT22;38422;53.172;6.974;2023-07-29T09:42:21;22.00;99.90
52513;DHT22;38422;53.172;6.974;2023-07-29T09:44:49;22.00;99.90
52513;DHT22;38422;53.172;6.974;2023-07-29T09:47:19;22.30;99.90
52513;DHT22;38422;53.172;6.974;2023-07-29T09:49:46;22.30;99.90
52513;DHT22;38422;53.172;6.974;2023-07-29T09:52:13;22.40;99.90
52513;DHT22;38422;53.172;6.974;2023-07-29T09:54:39;22.30;99.90
52513;DHT22;38422;53.172;6.974;2023-07-29T09:57:06;22.30;99.90
52513;DHT22;38422;53.172;6.974;2023-07-29T09:59:36;22.10;99.90
52513;DHT22;38422;53.172;6.974;2023-07-29T10:02:01;22.00;99.90
52513;DHT22;38422;53.172;6.974;2023-07-29T10:04:29;22.00;99.90
52513;DHT22;38422;53.172;6.974;2023-07-29T10:06:56;22.10;99.90
52513;DHT22;38422;53.172;6.974;2023-07-29T10:09:25;22.40;99.90
52513;DHT22;38422;53.172;6.974;2023-07-29T10:11:52;22.80;99.90
52513;DHT22;38422;53.172;6.974;2023-07-29T10:14:19;23.10;99.90
52513;DHT22;38422;53.172;6.974;2023-07-29T10:16:46;23.40;99.90
52513;DHT22;38422;53.172;6.974;2023-07-29T10:19:12;23.60;99.90
52513;DHT22;38422;53.172;6.974;2023-07-29T10:21:41;23.70;99.90
52513;DHT22;38422;53.172;6.974;2023-07-29T10:24:15;23.90;99.90
52513;DHT22;38422;53.172;6.974;2023-07-29T10:26:46;24.40;99.90
52513;DHT22;38422;53.172;6.974;2023-07-29T10:29:13;24.70;99.90
52513;DHT22;38422;53.172;6.974;2023-07-29T10:31:42;25.00;99.90
52513;DHT22;38422;53.172;6.974;2023-07-29T10:34:09;25.00;99.90
52513;DHT22;38422;53.172;6.974;2023-07-29T10:36:35;25.10;99.90
52513;DHT22;38422;53.172;6.974;2023-07-29T10:39:02;25.00;99.90
52513;DHT22;38422;53.172;6.974;2023-07-29T10:41:56;24.80;99.90
52513;DHT22;38422;53.172;6.974;2023-07-29T10:44:49;24.60;99.90
52513;DHT22;38422;53.172;6.974;2023-07-29T10:47:15;24.80;99.90
52513;DHT22;38422;53.172;6.974;2023-07-29T10:49:45;25.10;99.90
52513;DHT22;38422;53.172;6.974;2023-07-29T10:52:27;25.20;99.90
52513;DHT22;38422;53.172;6.974;2023-07-29T10:54:53;25.40;99.90
52513;DHT22;38422;53.172;6.974;2023-07-29T10:57:33;25.60;99.90
52513;DHT22;38422;53.172;6.974;2023-07-29T10:59:59;25.50;99.90
52513;DHT22;38422;53.172;6.974;2023-07-29T11:02:33;25.50;99.90
52513;DHT22;38422;53.172;6.974;2023-07-29T11:05:05;25.60;99.90
52513;DHT22;38422;53.172;6.974;2023-07-29T11:07:31;25.60;99.90
52513;DHT22;38422;53.172;6.974;2023-07-29T11:10:08;25.60;99.90
52513;DHT22;38422;53.172;6.974;2023-07-29T11:12:46;25.80;99.90
52513;DHT22;38422;53.172;6.974;2023-07-29T11:15:27;26.10;99.90
52513;DHT22;38422;53.172;6.974;2023-07-29T11:17:55;26.30;99.90
52513;DHT22;38422;53.172;6.974;2023-07-29T11:20:31;26.20;99.90
52513;DHT22;38422;53.172;6.974;2023-07-29T11:23:01;25.90;99.90
52513;DHT22;38422;53.172;6.974;2023-07-29T11:25:29;25.80;99.90
52513;DHT22;38422;53.172;6.974;2023-07-29T11:27:57;26.00;99.90
52513;DHT22;38422;53.172;6.974;2023-07-29T11:30:23;26.10;99.90
52513;DHT22;38422;53.172;6.974;2023-07-29T11:32:53;25.90;99.90
52513;DHT22;38422;53.172;6.974;2023-07-29T11:35:19;25.80;99.90
52513;DHT22;38422;53.172;6.974;2023-07-29T11:37:46;25.40;99.90
52513;DHT22;38422;53.172;6.974;2023-07-29T11:40:17;24.80;99.90
52513;DHT22;38422;53.172;6.974;2023-07-29T11:42:44;24.40;99.90
52513;DHT22;38422;53.172;6.974;2023-07-29T11:45:10;23.80;99.90
52513;DHT22;38422;53.172;6.974;2023-07-29T11:47:40;23.20;99.90
52513;DHT22;38422;53.172;6.974;2023-07-29T11:50:08;23.00;99.90
52513;DHT22;38422;53.172;6.974;2023-07-29T11:52:44;22.80;99.90
52513;DHT22;38422;53.172;6.974;2023-07-29T11:55:11;22.90;99.90
52513;DHT22;38422;53.172;6.974;2023-07-29T11:57:38;22.90;99.90
52513;DHT22;38422;53.172;6.974;2023-07-29T12:00:06;23.10;99.90
52513;DHT22;38422;53.172;6.974;2023-07-29T12:02:32;23.40;99.90
52513;DHT22;38422;53.172;6.974;2023-07-29T12:04:59;23.50;99.90
52513;DHT22;38422;53.172;6.974;2023-07-29T12:07:25;23.70;99.90
52513;DHT22;38422;53.172;6.974;2023-07-29T12:09:52;23.90;99.90
52513;DHT22;38422;53.172;6.974;2023-07-29T12:12:18;24.10;99.90
52513;DHT22;38422;53.172;6.974;2023-07-29T12:14:47;24.20;99.90
52513;DHT22;38422;53.172;6.974;2023-07-29T12:17:13;24.20;99.90
52513;DHT22;38422;53.172;6.974;2023-07-29T12:19:40;24.20;99.90
52513;DHT22;38422;53.172;6.974;2023-07-29T12:22:07;24.40;99.90
52513;DHT22;38422;53.172;6.974;2023-07-29T12:24:36;24.80;99.90
52513;DHT22;38422;53.172;6.974;2023-07-29T12:27:01;25.20;99.90
52513;DHT22;38422;53.172;6.974;2023-07-29T12:29:27;25.20;99.90
52513;DHT22;38422;53.172;6.974;2023-07-29T12:32:01;25.20;99.90
52513;DHT22;38422;53.172;6.974;2023-07-29T12:34:28;25.10;99.90
52513;DHT22;38422;53.172;6.974;2023-07-29T12:36:55;25.00;99.90
52513;DHT22;38422;53.172;6.974;2023-07-29T12:39:30;24.90;99.90
52513;DHT22;38422;53.172;6.974;2023-07-29T12:41:59;24.80;99.90
52513;DHT22;38422;53.172;6.974;2023-07-29T12:44:35;24.50;99.90
52513;DHT22;38422;53.172;6.974;2023-07-29T12:47:02;24.20;99.90
52513;DHT22;38422;53.172;6.974;2023-07-29T12:49:29;23.90;99.90
52513;DHT22;38422;53.172;6.974;2023-07-29T12:51:56;23.80;99.90
52513;DHT22;38422;53.172;6.974;2023-07-29T12:54:22;23.80;99.90
52513;DHT22;38422;53.172;6.974;2023-07-29T12:56:47;24.10;99.90
52513;DHT22;38422;53.172;6.974;2023-07-29T12:59:13;24.40;99.90
52513;DHT22;38422;53.172;6.974;2023-07-29T13:01:39;24.90;99.90
52513;DHT22;38422;53.172;6.974;2023-07-29T13:04:05;25.40;99.90
52513;DHT22;38422;53.172;6.974;2023-07-29T13:06:30;25.60;99.90
52513;DHT22;38422;53.172;6.974;2023-07-29T13:08:56;25.70;99.90
52513;DHT22;38422;53.172;6.974;2023-07-29T13:11:22;25.70;99.90
52513;DHT22;38422;53.172;6.974;2023-07-29T13:13:47;25.70;99.90
52513;DHT22;38422;53.172;6.974;2023-07-29T13:16:13;25.70;99.90
52513;DHT22;38422;53.172;6.974;2023-07-29T13:18:39;26.00;99.90
52513;DHT22;38422;53.172;6.974;2023-07-29T13:21:05;26.20;99.90
52513;DHT22;38422;53.172;6.974;2023-07-29T13:23:31;26.10;99.90
52513;DHT22;38422;53.172;6.974;2023-07-29T13:25:57;26.30;99.90
52513;DHT22;38422;53.172;6.974;2023-07-29T13:28:23;26.20;99.90
52513;DHT22;38422;53.172;6.974;2023-07-29T13:30:49;26.20;99.90
52513;DHT22;38422;53.172;6.974;2023-07-29T13:33:15;26.20;99.90
52513;DHT22;38422;53.172;6.974;2023-07-29T13:35:41;25.90;99.90
52513;DHT22;38422;53.172;6.974;2023-07-29T13:38:06;25.80;99.90
52513;DHT22;38422;53.172;6.974;2023-07-29T13:40:35;25.40;99.90
52513;DHT22;38422;53.172;6.974;2023-07-29T13:43:01;25.00;99.90
52513;DHT22;38422;53.172;6.974;2023-07-29T13:45:26;24.80;99.90
52513;DHT22;38422;53.172;6.974;2023-07-29T13:47:52;24.70;99.90
52513;DHT22;38422;53.172;6.974;2023-07-29T13:50:18;24.90;99.90
52513;DHT22;38422;53.172;6.974;2023-07-29T13:52:44;25.20;99.90
52513;DHT22;38422;53.172;6.974;2023-07-29T13:55:09;25.50;99.90
52513;DHT22;38422;53.172;6.974;2023-07-29T13:57:37;25.80;99.90
52513;DHT22;38422;53.172;6.974;2023-07-29T14:00:03;26.20;99.90
52513;DHT22;38422;53.172;6.974;2023-07-29T14:02:29;26.40;99.90
52513;DHT22;38422;53.172;6.974;2023-07-29T14:04:56;26.30;99.90
52513;DHT22;38422;53.172;6.974;2023-07-29T14:07:22;26.00;99.90
52513;DHT22;38422;53.172;6.974;2023-07-29T14:09:48;26.00;99.90
52513;DHT22;38422;53.172;6.974;2023-07-29T14:12:16;26.40;99.90
52513;DHT22;38422;53.172;6.974;2023-07-29T14:14:42;26.90;99.90
52513;DHT22;38422;53.172;6.974;2023-07-29T14:17:08;27.00;99.90
52513;DHT22;38422;53.172;6.974;2023-07-29T14:19:35;27.10;99.90
52513;DHT22;38422;53.172;6.974;2023-07-29T14:22:01;27.30;99.90
52513;DHT22;38422;53.172;6.974;2023-07-29T14:24:27;27.00;99.90
52513;DHT22;38422;53.172;6.974;2023-07-29T14:26:52;26.80;99.90
52513;DHT22;38422;53.172;6.974;2023-07-29T14:29:18;26.40;99.90
52513;DHT22;38422;53.172;6.974;2023-07-29T14:31:44;26.30;99.90
52513;DHT22;38422;53.172;6.974;2023-07-29T14:34:10;26.30;99.90
52513;DHT22;38422;53.172;6.974;2023-07-29T14:36:36;26.40;99.90
52513;DHT22;38422;53.172;6.974;2023-07-29T14:39:02;26.70;99.90
52513;DHT22;38422;53.172;6.974;2023-07-29T14:41:28;26.90;99.90
52513;DHT22;38422;53.172;6.974;2023-07-29T14:43:53;27.10;99.90
52513;DHT22;38422;53.172;6.974;2023-07-29T14:46:19;27.20;99.90
52513;DHT22;38422;53.172;6.974;2023-07-29T14:48:45;27.40;99.90
52513;DHT22;38422;53.172;6.974;2023-07-29T14:51:12;27.80;99.90
52513;DHT22;38422;53.172;6.974;2023-07-29T14:53:38;28.10;99.90
52513;DHT22;38422;53.172;6.974;2023-07-29T14:56:04;28.30;99.90
52513;DHT22;38422;53.172;6.974;2023-07-29T14:58:30;28.50;99.90
52513;DHT22;38422;53.172;6.974;2023-07-29T15:00:56;28.40;99.90
52513;DHT22;38422;53.172;6.974;2023-07-29T15:03:22;28.30;99.90
52513;DHT22;38422;53.172;6.974;2023-07-29T15:05:49;28.00;99.90
52513;DHT22;38422;53.172;6.974;2023-07-29T15:08:14;27.90;99.90
52513;DHT22;38422;53.172;6.974;2023-07-29T15:10:40;27.80;99.90
52513;DHT22;38422;53.172;6.974;2023-07-29T15:13:06;27.70;99.90
52513;DHT22;38422;53.172;6.974;2023-07-29T15:15:32;27.50;99.80
52513;DHT22;38422;53.172;6.974;2023-07-29T15:17:57;27.40;99.90
52513;DHT22;38422;53.172;6.974;2023-07-29T15:20:23;27.50;99.90
52513;DHT22;38422;53.172;6.974;2023-07-29T15:22:49;27.70;99.50
52513;DHT22;38422;53.172;6.974;2023-07-29T15:25:15;27.80;99.40
52513;DHT22;38422;53.172;6.974;2023-07-29T15:27:40;27.70;99.00
52513;DHT22;38422;53.172;6.974;2023-07-29T15:30:07;27.30;99.10
52513;DHT22;38422;53.172;6.974;2023-07-29T15:32:32;27.20;99.50